createdAt,value
2022-08-21T00:00:35.199Z,10.90
2022-08-21T00:03:06.298Z,6.00
2022-08-21T00:05:47.653Z,7.63
2022-08-21T00:08:14.806Z,7.30
2022-08-21T00:10:42.337Z,7.82
2022-08-21T00:13:10.060Z,6.85
2022-08-21T00:15:39.520Z,7.35
2022-08-21T00:18:08.690Z,12.40
2022-08-21T00:20:36.069Z,7.30
2022-08-21T00:23:03.376Z,8.55
2022-08-21T00:25:31.204Z,6.40
2022-08-21T00:27:58.548Z,7.22
2022-08-21T00:30:27.513Z,8.57
2022-08-21T00:32:58.456Z,7.53
2022-08-21T00:35:32.974Z,6.90
2022-08-21T00:38:04.823Z,7.75
2022-08-21T00:40:50.241Z,10.00
2022-08-21T00:43:20.659Z,6.93
2022-08-21T00:45:48.325Z,7.00
2022-08-21T00:48:15.862Z,5.32
2022-08-21T00:50:51.288Z,7.28
2022-08-21T00:53:18.598Z,6.93
2022-08-21T00:55:46.613Z,8.90
2022-08-21T00:58:15.399Z,7.38
2022-08-21T01:00:49.113Z,8.63
2022-08-21T01:03:23.729Z,6.28
2022-08-21T01:05:55.303Z,7.35
2022-08-21T01:08:24.396Z,7.28
2022-08-21T01:10:56.719Z,7.30
2022-08-21T01:13:26.440Z,9.88
2022-08-21T01:15:56.505Z,7.20
2022-08-21T01:18:25.685Z,9.27
2022-08-21T01:21:14.947Z,9.50
2022-08-21T01:23:45.813Z,6.88
2022-08-21T01:26:17.363Z,7.50
2022-08-21T01:28:59.327Z,11.52
2022-08-21T01:31:30.476Z,7.53
2022-08-21T01:33:57.763Z,7.65
2022-08-21T01:36:26.773Z,10.85
2022-08-21T01:38:53.812Z,10.30
2022-08-21T01:41:20.952Z,10.15
2022-08-21T01:43:48.297Z,12.88
2022-08-21T01:46:16.002Z,10.32
2022-08-21T01:48:43.913Z,10.98
2022-08-21T01:51:12.899Z,11.48
2022-08-21T01:53:40.081Z,13.63
2022-08-21T01:56:12.670Z,8.48
2022-08-21T01:58:45.361Z,8.05
2022-08-21T02:01:12.872Z,10.30
2022-08-21T02:03:41.757Z,13.68
2022-08-21T02:06:14.806Z,9.98
2022-08-21T02:08:41.840Z,8.23
2022-08-21T02:11:08.953Z,8.45
2022-08-21T02:13:36.173Z,10.27
2022-08-21T02:16:03.523Z,9.65
2022-08-21T02:18:30.851Z,10.82
2022-08-21T02:20:57.860Z,10.77
2022-08-21T02:23:27.000Z,11.23
2022-08-21T02:25:58.089Z,7.85
2022-08-21T02:28:29.451Z,11.52
2022-08-21T02:30:58.050Z,11.25
2022-08-21T02:33:27.621Z,9.93
2022-08-21T02:35:55.268Z,8.60
2022-08-21T02:38:26.322Z,13.20
2022-08-21T02:40:55.222Z,8.02
2022-08-21T02:43:25.248Z,10.55
2022-08-21T02:45:57.694Z,9.48
2022-08-21T02:48:28.356Z,6.38
2022-08-21T02:51:00.345Z,10.80
2022-08-21T02:53:30.851Z,12.88
2022-08-21T02:56:00.535Z,12.90
2022-08-21T02:58:31.323Z,12.07
2022-08-21T03:00:59.303Z,11.02
2022-08-21T03:03:30.496Z,10.52
2022-08-21T03:05:57.757Z,9.23
2022-08-21T03:08:27.848Z,11.48
2022-08-21T03:10:56.627Z,12.43
2022-08-21T03:13:27.133Z,12.32
2022-08-21T03:15:55.578Z,8.77
2022-08-21T03:18:30.785Z,9.98
2022-08-21T03:20:57.894Z,9.55
2022-08-21T03:23:25.358Z,9.55
2022-08-21T03:26:00.553Z,12.13
2022-08-21T03:28:28.124Z,9.20
2022-08-21T03:30:57.179Z,9.40
2022-08-21T03:33:27.063Z,8.93
2022-08-21T03:36:01.704Z,9.00
2022-08-21T03:38:31.668Z,12.15
2022-08-21T03:41:00.959Z,11.43
2022-08-21T03:43:32.646Z,9.85
2022-08-21T03:46:04.496Z,11.82
2022-08-21T03:48:36.563Z,9.98
2022-08-21T03:51:04.697Z,8.98
2022-08-21T03:53:31.836Z,9.60
2022-08-21T03:56:00.211Z,9.05
2022-08-21T03:58:30.501Z,9.63
2022-08-21T04:01:00.246Z,13.52
2022-08-21T04:03:30.836Z,9.68
2022-08-21T04:05:58.202Z,18.55
2022-08-21T04:08:26.865Z,10.52
2022-08-21T04:10:57.743Z,9.73
2022-08-21T04:13:26.295Z,11.10
2022-08-21T04:15:53.961Z,10.55
2022-08-21T04:18:22.297Z,9.35
2022-08-21T04:20:54.051Z,12.50
2022-08-21T04:23:24.703Z,10.70
2022-08-21T04:25:56.969Z,12.57
2022-08-21T04:28:29.052Z,12.15
2022-08-21T04:30:57.853Z,15.95
2022-08-21T04:33:26.358Z,13.27
2022-08-21T04:35:53.845Z,9.85
2022-08-21T04:38:23.338Z,12.23
2022-08-21T04:40:52.143Z,13.38
2022-08-21T04:43:20.530Z,13.93
2022-08-21T04:45:50.270Z,13.65
2022-08-21T04:48:21.136Z,11.05
2022-08-21T04:50:57.099Z,11.98
2022-08-21T04:53:43.977Z,14.57
2022-08-21T04:56:16.331Z,13.45
2022-08-21T04:58:44.011Z,11.73
2022-08-21T05:01:16.959Z,14.98
2022-08-21T05:03:48.155Z,13.73
2022-08-21T05:06:16.610Z,14.30
2022-08-21T05:08:47.137Z,13.07
2022-08-21T05:11:14.197Z,12.30
2022-08-21T05:13:44.910Z,17.70
2022-08-21T05:16:12.030Z,10.73
2022-08-21T05:18:39.667Z,14.50
2022-08-21T05:21:06.694Z,14.88
2022-08-21T05:23:33.790Z,14.07
2022-08-21T05:26:02.054Z,15.50
2022-08-21T05:28:30.343Z,13.15
2022-08-21T05:31:00.734Z,15.23
2022-08-21T05:33:27.803Z,13.52
2022-08-21T05:35:59.252Z,14.30
2022-08-21T05:38:29.555Z,12.13
2022-08-21T05:40:56.818Z,15.40
2022-08-21T05:43:23.887Z,10.55
2022-08-21T05:45:50.973Z,14.38
2022-08-21T05:48:22.076Z,11.68
2022-08-21T05:50:53.607Z,12.50
2022-08-21T05:53:23.531Z,13.23
2022-08-21T05:55:52.310Z,12.00
2022-08-21T05:58:22.432Z,11.15
2022-08-21T06:01:00.662Z,13.20
2022-08-21T06:03:30.618Z,11.93
2022-08-21T06:05:59.475Z,14.95
2022-08-21T06:08:27.810Z,14.40
2022-08-21T06:10:59.817Z,16.30
2022-08-21T06:13:27.978Z,12.02
2022-08-21T06:16:16.426Z,13.63
2022-08-21T06:18:45.507Z,13.73
2022-08-21T06:21:14.586Z,18.45
2022-08-21T06:23:42.377Z,14.25
2022-08-21T06:26:11.177Z,18.02
2022-08-21T06:28:38.779Z,14.65
2022-08-21T06:31:15.265Z,8.02
2022-08-21T06:33:42.383Z,11.20
2022-08-21T06:36:10.326Z,8.45
2022-08-21T06:38:37.971Z,8.85
2022-08-21T06:41:06.527Z,17.85
2022-08-21T06:43:39.866Z,19.65
2022-08-21T06:46:08.674Z,12.07
2022-08-21T06:48:36.073Z,13.45
2022-08-21T06:51:03.743Z,11.43
2022-08-21T06:53:30.798Z,8.20
2022-08-21T06:55:57.835Z,14.25
2022-08-21T06:58:27.386Z,14.77
2022-08-21T07:01:00.169Z,15.73
2022-08-21T07:03:34.125Z,10.98
2022-08-21T07:06:01.299Z,12.63
2022-08-21T07:08:29.263Z,19.55
2022-08-21T07:11:01.462Z,9.57
2022-08-21T07:13:29.449Z,7.72
2022-08-21T07:16:00.397Z,5.93
2022-08-21T07:18:30.848Z,7.97
2022-08-21T07:21:00.794Z,8.57
2022-08-21T07:23:37.473Z,7.13
2022-08-21T07:26:04.869Z,11.88
2022-08-21T07:28:32.353Z,20.02
2022-08-21T07:31:01.589Z,11.18
2022-08-21T07:33:31.677Z,12.95
2022-08-21T07:35:59.458Z,8.88
2022-08-21T07:38:27.868Z,12.52
2022-08-21T07:40:57.703Z,9.02
2022-08-21T07:43:26.916Z,6.85
2022-08-21T07:45:55.244Z,12.50
2022-08-21T07:48:26.511Z,8.25
2022-08-21T07:50:53.613Z,8.65
2022-08-21T07:53:20.733Z,13.52
2022-08-21T07:55:47.791Z,8.85
2022-08-21T07:58:14.804Z,9.95
2022-08-21T08:00:41.975Z,8.00
2022-08-21T08:03:09.527Z,6.35
2022-08-21T08:05:40.828Z,5.40
2022-08-21T08:08:08.038Z,9.20
2022-08-21T08:10:35.623Z,9.75
2022-08-21T08:13:02.778Z,12.65
2022-08-21T08:15:33.342Z,9.80
2022-08-21T08:18:04.459Z,11.55
2022-08-21T08:20:31.540Z,11.15
2022-08-21T08:22:59.176Z,16.13
2022-08-21T08:25:36.917Z,10.30
2022-08-21T08:28:16.211Z,8.15
2022-08-21T08:30:47.469Z,12.30
2022-08-21T08:33:15.499Z,11.38
2022-08-21T08:35:45.973Z,16.67
2022-08-21T08:38:13.446Z,8.82
2022-08-21T08:40:52.336Z,10.35
2022-08-21T08:43:20.248Z,6.70
2022-08-21T08:45:52.385Z,10.57
2022-08-21T08:49:00.235Z,8.10
2022-08-21T08:51:48.497Z,12.43
2022-08-21T08:54:26.791Z,8.68
2022-08-21T08:59:29.447Z,8.45
2022-08-21T09:01:57.641Z,9.70
2022-08-21T09:04:30.326Z,13.85
2022-08-21T09:07:30.680Z,7.80
2022-08-21T09:10:07.037Z,9.57
2022-08-21T09:12:54.060Z,5.75
2022-08-21T09:15:55.624Z,7.93
2022-08-21T09:18:41.297Z,6.22
2022-08-21T09:21:41.881Z,8.65
2022-08-21T09:24:51.861Z,4.07
2022-08-21T09:27:22.616Z,5.35
2022-08-21T09:29:53.863Z,8.00
2022-08-21T09:32:36.614Z,9.38
2022-08-21T09:35:20.928Z,4.97
2022-08-21T09:37:50.765Z,3.10
2022-08-21T09:40:23.832Z,10.10
2022-08-21T09:43:26.509Z,11.48
2022-08-21T09:46:25.462Z,8.95
2022-08-21T09:48:56.514Z,7.88
2022-08-21T09:51:28.835Z,3.67
2022-08-21T09:54:15.016Z,4.35
2022-08-21T09:57:20.398Z,3.67
2022-08-21T09:59:48.036Z,5.53
2022-08-21T10:02:33.550Z,6.63
2022-08-21T10:05:04.133Z,10.95
2022-08-21T10:07:33.504Z,10.57
2022-08-21T10:10:02.479Z,4.30
2022-08-21T10:12:56.875Z,3.72
2022-08-21T10:15:36.881Z,5.82
2022-08-21T10:18:13.927Z,11.05
2022-08-21T10:21:09.115Z,9.68
2022-08-21T10:23:57.048Z,7.15
2022-08-21T10:26:54.355Z,3.25
2022-08-21T10:29:53.246Z,9.90
2022-08-21T10:32:41.865Z,11.25
2022-08-21T10:35:25.068Z,3.85
2022-08-21T10:38:46.225Z,4.50
2022-08-21T10:41:30.604Z,10.65
2022-08-21T10:44:09.452Z,7.03
2022-08-21T10:46:48.456Z,5.72
2022-08-21T10:49:40.894Z,6.30
2022-08-21T10:52:25.489Z,7.35
2022-08-21T10:55:09.800Z,6.03
2022-08-21T10:57:52.577Z,3.35
2022-08-21T11:00:27.602Z,3.38
2022-08-21T11:03:26.344Z,8.20
2022-08-21T11:06:01.060Z,4.90
2022-08-21T11:08:43.100Z,2.60
2022-08-21T11:11:21.645Z,8.30
2022-08-21T11:14:37.889Z,4.93
2022-08-21T11:17:12.284Z,7.60
2022-08-21T11:20:00.552Z,9.05
2022-08-21T11:23:01.521Z,8.15
2022-08-21T11:25:36.959Z,4.55
2022-08-21T11:28:23.669Z,5.22
2022-08-21T11:31:05.646Z,2.75
2022-08-21T11:33:54.451Z,5.60
2022-08-21T11:36:32.702Z,9.82
2022-08-21T11:39:53.925Z,2.45
2022-08-21T11:43:01.552Z,8.27
2022-08-21T11:46:05.344Z,11.23
2022-08-21T11:48:45.365Z,6.47
2022-08-21T11:51:18.955Z,4.03
2022-08-21T11:56:44.148Z,7.55
2022-08-21T11:59:32.151Z,2.78
2022-08-21T12:02:00.614Z,3.70
2022-08-21T12:04:33.114Z,12.10
2022-08-21T12:07:15.188Z,4.85
2022-08-21T12:09:57.216Z,4.45
2022-08-21T12:12:30.668Z,5.47
2022-08-21T12:15:20.833Z,4.15
2022-08-21T12:18:00.814Z,9.88
2022-08-21T12:20:37.618Z,7.05
2022-08-21T12:23:12.803Z,9.32
2022-08-21T12:25:44.875Z,5.07
2022-08-21T12:28:23.585Z,9.77
2022-08-21T12:30:54.910Z,4.05
2022-08-21T12:33:31.212Z,10.18
2022-08-21T12:36:10.533Z,5.45
2022-08-21T12:39:12.019Z,3.95
2022-08-21T12:41:50.356Z,5.95
2022-08-21T12:44:24.248Z,5.43
2022-08-21T12:47:03.373Z,7.05
2022-08-21T12:49:41.812Z,6.70
2022-08-21T12:52:08.799Z,6.43
2022-08-21T12:54:42.850Z,4.28
2022-08-21T12:57:19.783Z,4.75
2022-08-21T12:59:46.951Z,2.70
2022-08-21T13:02:20.778Z,4.25
2022-08-21T13:04:50.390Z,7.95
2022-08-21T13:07:27.679Z,9.85
2022-08-21T13:10:08.503Z,6.18
2022-08-21T13:12:36.939Z,7.75
2022-08-21T13:15:09.019Z,2.80
2022-08-21T13:17:42.281Z,7.25
2022-08-21T13:20:33.259Z,3.67
2022-08-21T13:23:06.849Z,6.22
2022-08-21T13:28:14.221Z,3.97
2022-08-21T13:30:53.646Z,2.63
2022-08-21T13:33:25.520Z,8.25
2022-08-21T13:38:54.453Z,5.07
2022-08-21T13:41:31.499Z,6.03
2022-08-21T13:44:07.407Z,4.65
2022-08-21T13:46:37.005Z,9.30
2022-08-21T13:49:06.994Z,3.55
2022-08-21T13:51:34.813Z,2.00
2022-08-21T13:54:02.517Z,4.93
2022-08-21T13:56:30.941Z,4.13
2022-08-21T13:59:00.639Z,4.05
2022-08-21T14:01:40.949Z,4.45
2022-08-21T14:04:20.372Z,7.75
2022-08-21T14:06:47.817Z,4.40
2022-08-21T14:09:36.676Z,2.55
2022-08-21T14:12:23.437Z,5.38
2022-08-21T14:14:54.140Z,3.30
2022-08-21T14:17:34.049Z,4.57
2022-08-21T14:20:01.833Z,3.35
2022-08-21T14:22:39.651Z,3.28
2022-08-21T14:25:12.611Z,6.35
2022-08-21T14:28:01.517Z,7.45
2022-08-21T14:30:37.426Z,2.42
2022-08-21T14:33:09.984Z,3.40
2022-08-21T14:35:37.085Z,3.85
2022-08-21T14:38:18.856Z,7.32
2022-08-21T14:40:49.785Z,3.55
2022-08-21T14:43:18.128Z,6.40
2022-08-21T14:45:45.618Z,4.50
2022-08-21T14:48:13.027Z,4.90
2022-08-21T14:50:40.504Z,6.55
2022-08-21T14:53:11.184Z,4.60
2022-08-21T14:55:58.780Z,5.43
2022-08-21T14:58:29.476Z,4.60
2022-08-21T15:00:59.414Z,7.15
2022-08-21T15:03:26.961Z,11.93
2022-08-21T15:05:59.656Z,6.50
2022-08-21T15:08:27.316Z,3.67
2022-08-21T15:11:11.189Z,4.03
2022-08-21T15:13:39.314Z,5.53
2022-08-21T15:16:06.604Z,4.28
2022-08-21T15:18:33.741Z,6.55
2022-08-21T15:21:00.808Z,4.15
2022-08-21T15:23:27.861Z,4.13
2022-08-21T15:25:56.626Z,5.63
2022-08-21T15:28:27.613Z,3.85
2022-08-21T15:31:01.620Z,4.13
2022-08-21T15:33:30.523Z,3.78
2022-08-21T15:35:57.902Z,5.60
2022-08-21T15:38:25.449Z,4.30
2022-08-21T15:40:56.643Z,6.53
2022-08-21T15:43:30.146Z,7.53
2022-08-21T15:46:01.467Z,3.78
2022-08-21T15:48:29.541Z,3.83
2022-08-21T15:50:56.966Z,8.38
2022-08-21T15:53:24.073Z,3.67
2022-08-21T15:55:51.227Z,3.60
2022-08-21T15:58:20.792Z,5.50
2022-08-21T16:00:47.976Z,2.00
2022-08-21T16:03:17.884Z,3.85
2022-08-21T16:05:46.228Z,9.48
2022-08-21T16:08:13.330Z,4.88
2022-08-21T16:10:43.944Z,3.67
2022-08-21T16:13:39.066Z,3.08
2022-08-21T16:16:06.444Z,3.70
2022-08-21T16:18:33.716Z,2.60
2022-08-21T16:21:00.791Z,5.90
2022-08-21T16:23:27.860Z,5.93
2022-08-21T16:25:57.289Z,3.72
2022-08-21T16:28:27.199Z,1.77
2022-08-21T16:30:56.826Z,6.15
2022-08-21T16:33:37.202Z,10.73
2022-08-21T16:36:05.647Z,6.25
2022-08-21T16:38:33.615Z,9.48
2022-08-21T16:41:07.136Z,3.50
2022-08-21T16:43:35.610Z,5.40
2022-08-21T16:46:03.955Z,6.82
2022-08-21T16:48:31.163Z,5.88
2022-08-21T16:50:59.290Z,4.20
2022-08-21T16:53:27.055Z,2.67
2022-08-21T16:55:54.450Z,4.50
2022-08-21T16:58:30.383Z,4.35
2022-08-21T17:00:59.631Z,3.83
2022-08-21T17:03:34.943Z,3.33
2022-08-21T17:06:02.227Z,4.78
2022-08-21T17:08:29.854Z,3.08
2022-08-21T17:10:58.330Z,2.95
2022-08-21T17:13:26.951Z,4.88
2022-08-21T17:15:54.586Z,5.70
2022-08-21T17:18:23.975Z,6.32
2022-08-21T17:20:51.337Z,7.57
2022-08-21T17:23:19.725Z,3.17
2022-08-21T17:25:49.623Z,4.40
2022-08-21T17:28:25.565Z,7.18
2022-08-21T17:30:57.438Z,5.47
2022-08-21T17:33:26.681Z,6.32
2022-08-21T17:35:54.089Z,6.50
2022-08-21T17:38:21.419Z,5.78
2022-08-21T17:40:49.077Z,7.90
2022-08-21T17:43:16.294Z,5.10
2022-08-21T17:45:45.017Z,3.90
2022-08-21T17:48:12.204Z,4.53
2022-08-21T17:50:39.804Z,3.28
2022-08-21T17:53:07.140Z,4.63
2022-08-21T17:55:34.945Z,6.72
2022-08-21T17:58:03.701Z,3.10
2022-08-21T18:00:32.286Z,9.57
2022-08-21T18:03:07.470Z,2.45
2022-08-21T18:05:35.780Z,6.82
2022-08-21T18:08:02.990Z,8.93
2022-08-21T18:10:30.861Z,5.55
2022-08-21T18:13:00.720Z,4.80
2022-08-21T18:15:31.096Z,5.35
2022-08-21T18:18:01.336Z,7.88
2022-08-21T18:20:29.321Z,8.05
2022-08-21T18:22:57.034Z,11.65
2022-08-21T18:25:24.313Z,7.03
2022-08-21T18:27:52.770Z,4.18
2022-08-21T18:30:22.957Z,5.97
2022-08-21T18:32:52.972Z,4.88
2022-08-21T18:35:20.190Z,9.50
2022-08-21T18:37:47.291Z,3.70
2022-08-21T18:40:15.680Z,4.03
2022-08-21T18:42:51.506Z,6.45
2022-08-21T18:45:30.529Z,7.20
2022-08-21T18:47:59.711Z,3.58
2022-08-21T18:50:30.067Z,10.48
2022-08-21T18:52:57.305Z,6.90
2022-08-21T18:55:25.898Z,2.65
2022-08-21T18:57:57.343Z,4.15
2022-08-21T19:00:31.622Z,8.60
2022-08-21T19:03:06.127Z,12.82
2022-08-21T19:05:35.583Z,4.38
2022-08-21T19:08:03.972Z,5.10
2022-08-21T19:10:31.072Z,3.85
2022-08-21T19:13:00.879Z,10.40
2022-08-21T19:15:31.319Z,7.63
2022-08-21T19:17:59.450Z,4.38
2022-08-21T19:20:36.675Z,3.80
2022-08-21T19:23:06.502Z,4.63
2022-08-21T19:25:34.905Z,2.58
2022-08-21T19:28:10.729Z,4.13
2022-08-21T19:30:41.041Z,2.58
2022-08-21T19:33:09.174Z,4.25
2022-08-21T19:35:38.093Z,8.95
2022-08-21T19:38:05.142Z,5.63
2022-08-21T19:40:32.288Z,11.43
2022-08-21T19:43:00.577Z,12.23
2022-08-21T19:45:32.149Z,5.22
2022-08-21T19:48:03.852Z,8.30
2022-08-21T19:50:31.815Z,5.70
2022-08-21T19:53:01.406Z,5.25
2022-08-21T19:55:29.534Z,7.10
2022-08-21T19:57:57.191Z,7.75
2022-08-21T20:00:24.599Z,12.32
2022-08-21T20:02:52.682Z,6.07
2022-08-21T20:05:19.828Z,6.57
2022-08-21T20:07:48.789Z,4.32
2022-08-21T20:10:17.441Z,6.78
2022-08-21T20:12:49.056Z,4.43
2022-08-21T20:15:19.557Z,9.55
2022-08-21T20:17:46.840Z,8.90
2022-08-21T20:20:13.883Z,4.63
2022-08-21T20:22:41.907Z,7.40
2022-08-21T20:25:09.141Z,8.20
2022-08-21T20:27:40.463Z,3.50
2022-08-21T20:30:09.022Z,4.90
2022-08-21T20:32:36.165Z,5.70
2022-08-21T20:35:05.230Z,3.97
2022-08-21T20:37:39.938Z,5.70
2022-08-21T20:40:10.559Z,7.35
2022-08-21T20:42:47.156Z,9.18
2022-08-21T20:45:35.186Z,8.15
2022-08-21T20:48:32.342Z,5.38
2022-08-21T20:51:39.562Z,4.60
2022-08-21T20:54:43.934Z,5.25
2022-08-21T20:57:21.993Z,6.18
2022-08-21T21:00:00.647Z,9.05
2022-08-21T21:02:42.752Z,5.38
2022-08-21T21:05:20.214Z,5.07
2022-08-21T21:08:11.804Z,6.75
2022-08-21T21:10:48.058Z,4.20
2022-08-21T21:13:23.976Z,7.28
2022-08-21T21:18:36.373Z,5.88
2022-08-21T21:21:20.332Z,4.80
2022-08-21T21:23:54.727Z,5.82
2022-08-21T21:26:29.205Z,7.88
2022-08-21T21:29:12.020Z,6.30
2022-08-21T21:31:41.563Z,4.95
2022-08-21T21:34:09.200Z,7.82
2022-08-21T21:37:04.640Z,5.10
2022-08-21T21:39:40.725Z,5.55
2022-08-21T21:42:44.856Z,4.95
2022-08-21T21:45:35.600Z,4.75
2022-08-21T21:48:31.780Z,10.05
2022-08-21T21:51:11.941Z,7.80
2022-08-21T21:54:11.356Z,6.60
2022-08-21T21:57:05.981Z,9.20
2022-08-21T21:59:43.929Z,7.55
2022-08-21T22:02:31.287Z,4.85
2022-08-21T22:05:06.577Z,6.68
2022-08-21T22:07:45.826Z,11.32
2022-08-21T22:10:42.907Z,6.13
2022-08-21T22:13:26.428Z,6.97
2022-08-21T22:16:05.336Z,7.38
2022-08-21T22:18:45.193Z,8.57
2022-08-21T22:21:42.524Z,8.40
2022-08-21T22:24:18.109Z,5.15
2022-08-21T22:26:50.680Z,9.05
2022-08-21T22:29:20.785Z,9.30
2022-08-21T22:32:05.651Z,6.65
2022-08-21T22:34:34.193Z,6.25
2022-08-21T22:37:06.024Z,10.20
2022-08-21T22:39:39.176Z,4.35
2022-08-21T22:42:15.968Z,8.38
2022-08-21T22:44:57.084Z,9.38
2022-08-21T22:47:48.755Z,6.40
2022-08-21T22:50:21.037Z,16.75
2022-08-21T22:52:54.608Z,8.27
2022-08-21T22:55:47.615Z,8.65
2022-08-21T22:58:17.662Z,8.32
2022-08-21T23:01:12.132Z,11.57
2022-08-21T23:03:51.375Z,10.38
2022-08-21T23:07:02.130Z,9.35
2022-08-21T23:09:45.451Z,7.93
2022-08-21T23:12:34.490Z,6.00
2022-08-21T23:15:17.912Z,7.13
2022-08-21T23:18:13.878Z,9.65
2022-08-21T23:21:31.174Z,11.80
2022-08-21T23:24:19.483Z,16.00
2022-08-21T23:27:11.750Z,7.28
2022-08-21T23:29:51.748Z,10.65
2022-08-21T23:32:47.088Z,8.27
2022-08-21T23:35:19.641Z,10.80
2022-08-21T23:37:51.882Z,5.40
2022-08-21T23:40:50.801Z,5.03
2022-08-21T23:44:02.888Z,6.22
2022-08-21T23:46:45.475Z,6.00
2022-08-21T23:49:59.550Z,6.13
2022-08-21T23:52:44.969Z,7.90
2022-08-21T23:55:14.894Z,7.78
2022-08-21T23:58:06.389Z,11.80
